• Join FlightAware (Why Join?)
  • Login
  • US Flag 
03:38PM EDT


 

Airport Tracker/Info


-or-


 

Live Flight TrackerFlight Track Log ✈ N1944E ✈ 16-Oct-2013 ✈ KJAC - KCOD

Flight Track Log - Related Links

Times and Time Zones

All times are in EDT time to prevent confusion due to time zone crossing. See the N1944E flight status page for this flight to view local times or setup timezone preferences in your user account.

Time Position Orientation Groundspeed Altitude Reporting Facility
EDT Latitude Longitude Course Direction KTS MPH feet Rate Location/Type
10:04AM 43.5417 -110.7822 209° Southwest 134 154 8,700  Level Salt Lake Center
10:05AM 43.5089 -110.8025 204° Southwest 132 152 9,900 1,080 Climbing Salt Lake Center
10:06AM 43.4736 -110.8231 203° Southwest 133 153 11,000 1,020 Climbing Salt Lake Center
10:07AM 43.7606 -110.4569 51° Northeast  Level Estimated
10:07AM 43.4386 -110.8486 208° Southwest 140 161 12,100  Level Salt Lake Center
10:08AM 43.7860 -110.4098 53° Northeast  Level FlightAware Approximate
10:08AM 43.3922 -110.8800 206° Southwest 152 175 13,400  Level Salt Lake Center
10:09AM 43.3522 -110.8986 199° South 154 177 14,400 780 Climbing Salt Lake Center
10:10AM 43.3339 -110.8464 116° Southeast 169 194 15,000 720 Climbing Salt Lake Center
10:11AM 43.3483 -110.7867 72° East 165 190 15,900 840 Climbing Salt Lake Center
10:12AM 43.3772 -110.7458 46° Northeast 151 174 16,800 540 Climbing Salt Lake Center
10:13AM 43.4086 -110.7014 46° Northeast 161 185 17,100 120 Climbing Salt Lake Center
10:14AM 43.4436 -110.6492 47° Northeast 185 213 17,100 -60 Level Salt Lake Center
10:15AM 43.4806 -110.5994 44° Northeast 186 214 17,000 -60 Descending Salt Lake Center
10:16AM 43.5250 -110.5386 45° Northeast 190 219 17,000  Level Salt Lake Center
10:17AM 43.5619 -110.4900 44° Northeast 185 213 17,000  Level Salt Lake Center
10:18AM 43.5981 -110.4394 45° Northeast 186 214 17,100  Climbing Salt Lake Center
10:19AM 43.6311 -110.3853 50° Northeast 185 213 17,100  Level Salt Lake Center
10:20AM 43.6667 -110.3283 49° Northeast 193 222 17,100  Level Salt Lake Center
10:21AM 43.7011 -110.2744 49° Northeast 188 216 17,100 -60 Level Salt Lake Center
10:22AM 43.7406 -110.2275 41° Northeast 187 215 17,000 -180 Descending Salt Lake Center
10:23AM 43.7819 -110.1606 49° Northeast 189 217 16,800 -120 Descending Salt Lake Center
10:24AM 43.8189 -110.1089 45° Northeast 190 219 16,800  Level Salt Lake Center
10:25AM 43.8539 -110.0539 49° Northeast 190 219 16,800  Level Salt Lake Center
10:26AM 43.8889 -110.0003 48° Northeast 189 217 16,800  Level Salt Lake Center
10:27AM 43.9264 -109.9464 46° Northeast 184 212 16,800  Level Salt Lake Center
10:28AM 43.9603 -109.8939 48° Northeast 188 216 16,800  Level Salt Lake Center
10:29AM 44.0008 -109.8333 47° Northeast 191 220 16,800  Level Salt Lake Center
10:30AM 44.0319 -109.7831 49° Northeast 191 220 16,800  Level Salt Lake Center